createdAt,value
2019-04-11T00:01:39.100Z,5.40
2019-04-11T00:03:36.275Z,5.30
2019-04-11T00:05:39.716Z,5.30
2019-04-11T00:07:43.367Z,5.20
2019-04-11T00:09:47.824Z,5.20
2019-04-11T00:11:50.383Z,5.10
2019-04-11T00:13:53.859Z,5.10
2019-04-11T00:15:57.276Z,5.00
2019-04-11T00:18:00.769Z,5.00
2019-04-11T00:20:04.321Z,4.90
2019-04-11T00:22:08.930Z,4.90
2019-04-11T00:24:12.446Z,4.80
2019-04-11T00:26:15.946Z,4.80
2019-04-11T00:28:18.588Z,4.70
2019-04-11T00:30:22.148Z,4.70
2019-04-11T00:32:25.800Z,4.70
2019-04-11T00:34:29.301Z,4.60
2019-04-11T00:36:32.704Z,4.60
2019-04-11T00:38:36.204Z,4.60
2019-04-11T00:40:39.769Z,4.50
2019-04-11T00:42:43.296Z,4.50
2019-04-11T00:44:47.969Z,4.50
2019-04-11T00:46:50.928Z,4.50
2019-04-11T00:48:54.480Z,4.40
2019-04-11T00:50:57.303Z,4.40
2019-04-11T00:53:01.511Z,4.40
2019-04-11T00:55:05.073Z,4.40
2019-04-11T00:57:08.470Z,4.30
2019-04-11T00:59:11.466Z,4.30
2019-04-11T01:01:15.650Z,4.30
2019-04-11T01:03:18.485Z,4.30
2019-04-11T01:05:21.926Z,4.30
2019-04-11T01:07:25.424Z,4.20
2019-04-11T01:09:29.127Z,4.20
2019-04-11T01:11:32.568Z,4.20
2019-04-11T01:13:46.648Z,4.20
2019-04-11T01:15:40.814Z,4.10
2019-04-11T01:17:43.469Z,4.20
2019-04-11T01:19:46.915Z,4.10
2019-04-11T01:21:50.928Z,4.10
2019-04-11T01:23:54.144Z,4.10
2019-04-11T01:25:57.549Z,4.00
2019-04-11T01:28:01.168Z,4.00
2019-04-11T01:30:06.102Z,4.00
2019-04-11T01:32:10.552Z,4.00
2019-04-11T01:34:13.119Z,4.00
2019-04-11T01:36:16.601Z,4.00
2019-04-11T01:38:22.701Z,3.90
2019-04-11T01:40:23.550Z,3.90
2019-04-11T01:42:27.082Z,3.90
2019-04-11T01:44:30.583Z,3.90
2019-04-11T01:46:34.152Z,3.90
2019-04-11T01:48:45.842Z,3.80
2019-04-11T01:50:50.249Z,3.80
2019-04-11T01:52:52.958Z,3.70
2019-04-11T01:54:56.403Z,3.70
2019-04-11T01:56:59.176Z,3.70
2019-04-11T01:59:02.855Z,3.70
2019-04-11T02:01:41.700Z,3.60
2019-04-11T02:03:55.972Z,3.60
2019-04-11T02:05:59.575Z,3.60
2019-04-11T02:08:03.029Z,3.60
2019-04-11T02:10:06.568Z,3.50
2019-04-11T02:12:10.028Z,3.50
2019-04-11T02:14:16.513Z,3.50
2019-04-11T02:16:16.926Z,3.50
2019-04-11T02:18:21.428Z,3.40
2019-04-11T02:20:24.893Z,3.40
2019-04-11T02:22:32.771Z,3.40
2019-04-11T02:24:43.771Z,3.30
2019-04-11T02:26:50.955Z,3.30
2019-04-11T02:28:55.197Z,3.20
2019-04-11T02:30:59.994Z,3.20
2019-04-11T02:33:02.012Z,3.20
2019-04-11T02:35:07.783Z,3.20
2019-04-11T02:37:09.295Z,3.10
2019-04-11T02:39:17.189Z,3.10
2019-04-11T02:41:17.119Z,3.10
2019-04-11T02:43:20.440Z,3.10
2019-04-11T02:45:36.255Z,3.10
2019-04-11T02:47:30.930Z,3.00
2019-04-11T02:49:31.168Z,3.00
2019-04-11T02:51:34.541Z,3.00
2019-04-11T02:53:37.009Z,3.00
2019-04-11T02:55:41.725Z,3.00
2019-04-11T02:57:43.938Z,3.00
2019-04-11T02:59:48.990Z,3.00
2019-04-11T03:01:52.498Z,3.00
2019-04-11T03:03:56.536Z,2.90
2019-04-11T03:05:59.501Z,2.90
2019-04-11T03:08:06.596Z,3.00
2019-04-11T03:10:07.053Z,2.90
2019-04-11T03:12:09.456Z,2.90
2019-04-11T03:14:13.925Z,2.90
2019-04-11T03:16:29.986Z,2.90
2019-04-11T03:18:42.439Z,2.90
2019-04-11T03:20:31.682Z,2.90
2019-04-11T03:22:27.354Z,2.90
2019-04-11T03:24:31.833Z,2.90
2019-04-11T03:26:35.551Z,2.90
2019-04-11T03:28:38.843Z,2.90
2019-04-11T03:31:01.672Z,2.80
2019-04-11T03:33:55.353Z,2.80
2019-04-11T03:37:27.244Z,2.80
2019-04-11T03:39:15.360Z,2.70
2019-04-11T03:41:16.265Z,2.70
2019-04-11T03:43:18.376Z,2.60
2019-04-11T03:45:27.718Z,2.70
2019-04-11T03:47:23.714Z,2.60
2019-04-11T03:49:25.027Z,2.60
2019-04-11T03:51:18.290Z,2.60
2019-04-11T03:53:23.479Z,2.60
2019-04-11T03:55:25.673Z,2.60
2019-04-11T03:57:27.694Z,2.60
2019-04-11T03:59:31.428Z,2.60
2019-04-11T04:01:34.971Z,2.50
2019-04-11T04:03:39.257Z,2.50
2019-04-11T04:05:43.698Z,2.60
2019-04-11T04:07:46.512Z,2.60
2019-04-11T04:10:02.759Z,2.50
2019-04-11T04:12:07.111Z,2.50
2019-04-11T04:15:29.621Z,2.50
2019-04-11T04:17:52.580Z,2.50
2019-04-11T04:21:07.014Z,2.50
2019-04-11T04:23:14.104Z,2.50
2019-04-11T04:25:16.845Z,2.40
2019-04-11T04:27:23.311Z,2.40
2019-04-11T04:29:25.125Z,2.40
2019-04-11T04:31:28.592Z,2.30
2019-04-11T04:33:31.456Z,2.30
2019-04-11T04:35:36.204Z,2.30
2019-04-11T04:37:38.792Z,2.30
2019-04-11T04:39:41.359Z,2.30
2019-04-11T04:41:58.980Z,2.30
2019-04-11T04:43:54.713Z,2.20
2019-04-11T04:46:13.687Z,2.20
2019-04-11T04:48:04.530Z,2.20
2019-04-11T04:50:04.634Z,2.20
2019-04-11T04:52:09.460Z,2.20
2019-04-11T04:54:12.135Z,2.20
2019-04-11T04:56:16.711Z,2.20
2019-04-11T04:58:18.530Z,2.20
2019-04-11T05:00:23.178Z,2.20
2019-04-11T05:02:26.008Z,2.20
2019-04-11T05:04:29.639Z,2.10
2019-04-11T05:06:32.335Z,2.20
2019-04-11T05:08:35.305Z,2.10
2019-04-11T05:10:40.172Z,2.20
2019-04-11T05:12:42.012Z,2.20
2019-04-11T05:14:45.609Z,2.10
2019-04-11T05:16:50.304Z,2.20
2019-04-11T05:18:52.553Z,2.20
2019-04-11T05:20:56.868Z,2.20
2019-04-11T05:23:00.032Z,2.20
2019-04-11T05:25:03.842Z,2.20
2019-04-11T05:27:06.381Z,2.20
2019-04-11T05:29:09.811Z,2.20
2019-04-11T05:31:14.321Z,2.20
2019-04-11T05:33:17.828Z,2.20
2019-04-11T05:35:20.276Z,2.20
2019-04-11T05:37:23.820Z,2.20
2019-04-11T05:39:27.634Z,2.20
2019-04-11T05:41:31.457Z,2.20
2019-04-11T05:43:37.344Z,2.30
2019-04-11T05:45:38.060Z,2.30
2019-04-11T05:47:41.425Z,2.30
2019-04-11T05:49:50.587Z,2.30
2019-04-11T05:51:58.817Z,2.30
2019-04-11T05:56:11.298Z,2.30
2019-04-11T05:58:15.967Z,2.40
2019-04-11T06:00:24.036Z,2.40
2019-04-11T06:02:33.085Z,2.40
2019-04-11T06:04:40.479Z,2.40
2019-04-11T06:06:55.462Z,2.40
2019-04-11T06:09:00.701Z,2.50
2019-04-11T06:11:15.886Z,2.50
2019-04-11T06:13:18.239Z,2.50
2019-04-11T06:15:29.175Z,2.50
2019-04-11T06:17:32.406Z,2.50
2019-04-11T06:20:43.407Z,2.60
2019-04-11T06:22:56.126Z,2.60
2019-04-11T06:25:03.568Z,2.70
2019-04-11T06:27:43.174Z,2.60
2019-04-11T06:29:57.329Z,2.70
2019-04-11T06:32:06.118Z,2.70
2019-04-11T06:34:09.571Z,2.80
2019-04-11T06:37:20.074Z,2.80
2019-04-11T06:39:43.570Z,2.80
2019-04-11T06:41:54.879Z,2.90
2019-04-11T06:44:04.807Z,2.90
2019-04-11T06:48:15.976Z,2.90
2019-04-11T06:50:39.617Z,3.00
2019-04-11T06:52:43.306Z,3.10
2019-04-11T06:55:02.579Z,3.20
2019-04-11T06:57:07.583Z,3.30
2019-04-11T06:59:14.747Z,3.30
2019-04-11T07:01:22.422Z,3.40
2019-04-11T07:03:30.375Z,3.40
2019-04-11T07:05:35.037Z,3.50
2019-04-11T07:07:38.168Z,3.50
2019-04-11T07:09:57.668Z,3.60
2019-04-11T07:12:05.509Z,3.70
2019-04-11T07:14:15.225Z,3.70
2019-04-11T07:16:19.912Z,3.80
2019-04-11T07:18:27.316Z,3.80
2019-04-11T07:20:37.896Z,3.80
2019-04-11T07:22:46.692Z,3.80
2019-04-11T07:25:01.953Z,3.90
2019-04-11T07:27:11.661Z,3.90
2019-04-11T07:29:19.756Z,3.90
2019-04-11T07:31:30.058Z,3.90
2019-04-11T07:33:40.927Z,4.00
2019-04-11T07:35:48.654Z,4.00
2019-04-11T07:37:55.390Z,4.10
2019-04-11T07:40:03.250Z,4.20
2019-04-11T07:44:15.442Z,4.20
2019-04-11T07:46:27.439Z,4.30
2019-04-11T07:48:32.348Z,4.50
2019-04-11T07:50:35.825Z,4.50
2019-04-11T07:52:43.508Z,4.60
2019-04-11T07:54:47.753Z,4.60
2019-04-11T07:57:26.365Z,4.70
2019-04-11T08:00:06.668Z,4.70
2019-04-11T08:02:18.154Z,4.90
2019-04-11T08:04:29.961Z,4.90
2019-04-11T08:06:39.668Z,5.00
2019-04-11T08:08:49.399Z,5.10
2019-04-11T08:11:28.041Z,5.10
2019-04-11T08:13:36.879Z,5.20
2019-04-11T08:15:46.056Z,5.30
2019-04-11T08:17:50.040Z,5.40
2019-04-11T08:19:57.883Z,5.50
2019-04-11T08:22:14.570Z,5.50
2019-04-11T08:24:22.491Z,5.60
2019-04-11T08:26:30.433Z,5.60
2019-04-11T08:28:34.405Z,5.70
2019-04-11T08:30:44.920Z,5.70
2019-04-11T08:32:51.962Z,5.80
2019-04-11T08:34:59.643Z,5.80
2019-04-11T08:37:07.401Z,5.90
2019-04-11T08:39:17.188Z,6.00
2019-04-11T08:41:25.367Z,6.10
2019-04-11T08:43:31.154Z,6.20
2019-04-11T08:45:34.696Z,6.30
2019-04-11T08:47:47.581Z,6.40
2019-04-11T08:49:50.078Z,6.50
2019-04-11T08:51:52.320Z,6.60
2019-04-11T08:54:02.827Z,6.70
2019-04-11T08:56:07.146Z,6.70
2019-04-11T08:58:16.210Z,6.80
2019-04-11T09:00:24.560Z,6.90
2019-04-11T09:02:33.255Z,7.00
2019-04-11T09:04:41.267Z,7.10
2019-04-11T09:06:45.064Z,7.10
2019-04-11T09:08:52.191Z,7.20
2019-04-11T09:11:27.089Z,7.30
2019-04-11T09:13:39.680Z,7.30
2019-04-11T09:15:47.495Z,7.40
2019-04-11T09:18:03.377Z,7.50
2019-04-11T09:20:36.479Z,7.60
2019-04-11T09:22:43.527Z,7.60
2019-04-11T09:26:58.331Z,7.80
2019-04-11T09:29:03.990Z,7.90
2019-04-11T09:31:14.034Z,8.00
2019-04-11T09:33:20.911Z,8.10
2019-04-11T09:35:28.453Z,8.20
2019-04-11T09:37:35.868Z,8.20
2019-04-11T09:40:47.955Z,8.30
2019-04-11T09:43:22.275Z,8.50
2019-04-11T09:46:28.265Z,8.50
2019-04-11T09:48:36.286Z,8.50
2019-04-11T09:50:46.933Z,8.60
2019-04-11T09:52:49.621Z,8.70
2019-04-11T09:55:02.141Z,8.80
2019-04-11T09:57:20.504Z,8.80
2019-04-11T09:59:33.968Z,8.90
2019-04-11T10:01:42.989Z,9.00
2019-04-11T10:03:46.325Z,9.00
2019-04-11T10:07:59.946Z,9.10
2019-04-11T10:10:10.727Z,9.20
2019-04-11T10:13:16.393Z,9.30
2019-04-11T10:15:23.290Z,9.40
2019-04-11T10:17:31.803Z,9.50
2019-04-11T10:19:36.419Z,9.60
2019-04-11T10:21:43.591Z,9.70
2019-04-11T10:23:53.365Z,9.80
2019-04-11T10:25:59.344Z,9.90
2019-04-11T10:29:11.438Z,10.00
2019-04-11T10:31:17.983Z,10.10
2019-04-11T10:33:35.229Z,10.20
2019-04-11T10:36:08.740Z,10.20
2019-04-11T10:38:13.834Z,10.40
2019-04-11T10:40:24.362Z,10.60
2019-04-11T10:42:28.847Z,10.60
2019-04-11T10:44:36.536Z,10.50
2019-04-11T10:46:50.096Z,10.60
2019-04-11T10:48:57.970Z,10.60
2019-04-11T10:51:06.715Z,10.60
2019-04-11T10:53:10.981Z,10.70
2019-04-11T10:55:17.687Z,10.80
2019-04-11T10:57:27.776Z,10.90
2019-04-11T10:59:32.994Z,10.80
2019-04-11T11:01:44.307Z,11.00
2019-04-11T11:03:52.089Z,11.00
2019-04-11T11:05:57.663Z,11.20
2019-04-11T11:08:05.391Z,11.10
2019-04-11T11:10:11.832Z,11.30
2019-04-11T11:14:23.276Z,11.50
2019-04-11T11:16:32.566Z,11.60
2019-04-11T11:19:16.769Z,11.70
2019-04-11T11:20:55.218Z,11.80
2019-04-11T11:23:00.189Z,11.60
2019-04-11T11:25:12.717Z,11.60
2019-04-11T11:27:13.708Z,11.40
2019-04-11T11:29:21.294Z,11.60
2019-04-11T11:31:32.960Z,11.50
2019-04-11T11:33:36.434Z,11.60
2019-04-11T11:35:52.089Z,11.60
2019-04-11T11:38:00.108Z,11.50
2019-04-11T11:40:14.555Z,11.60
2019-04-11T11:42:17.910Z,11.60
2019-04-11T11:44:22.588Z,11.60
2019-04-11T11:46:31.709Z,11.60
2019-04-11T11:49:48.751Z,11.70
2019-04-11T11:52:51.129Z,11.70
2019-04-11T11:54:55.733Z,11.70
2019-04-11T11:57:02.383Z,11.90
2019-04-11T11:59:11.240Z,12.00
2019-04-11T12:01:14.061Z,12.00
2019-04-11T12:05:29.405Z,11.90
2019-04-11T12:07:37.808Z,11.80
2019-04-11T12:09:50.952Z,11.90
2019-04-11T12:11:58.824Z,11.90
2019-04-11T12:14:07.674Z,11.90
2019-04-11T12:16:20.698Z,11.90
2019-04-11T12:18:24.897Z,11.90
2019-04-11T12:20:34.685Z,11.90
2019-04-11T12:22:40.201Z,11.90
2019-04-11T12:24:46.525Z,11.90
2019-04-11T12:26:56.042Z,11.90
2019-04-11T12:29:03.994Z,11.90
2019-04-11T12:31:09.420Z,11.90
2019-04-11T12:34:22.032Z,11.90
2019-04-11T12:36:28.425Z,11.90
2019-04-11T12:38:39.501Z,12.00
2019-04-11T12:40:48.204Z,12.00
2019-04-11T12:42:51.665Z,12.00
2019-04-11T12:45:00.413Z,11.90
2019-04-11T12:47:09.148Z,11.90
2019-04-11T12:49:19.736Z,11.80
2019-04-11T12:51:28.476Z,12.00
2019-04-11T12:53:31.919Z,11.90
2019-04-11T12:57:44.648Z,11.90
2019-04-11T12:59:49.360Z,11.80
2019-04-11T13:01:58.103Z,11.90
2019-04-11T13:04:06.817Z,11.90
2019-04-11T13:06:14.490Z,11.90
2019-04-11T13:08:25.026Z,11.90
2019-04-11T13:10:31.086Z,11.90
2019-04-11T13:12:40.697Z,11.90
2019-04-11T13:14:52.291Z,11.90
2019-04-11T13:16:57.198Z,11.90
2019-04-11T13:19:05.677Z,11.90
2019-04-11T13:21:14.508Z,11.90
2019-04-11T13:23:24.050Z,11.90
2019-04-11T13:25:33.536Z,11.90
2019-04-11T13:27:41.025Z,11.90
2019-04-11T13:31:50.697Z,11.80
2019-04-11T13:33:57.538Z,11.80
2019-04-11T13:36:11.152Z,11.90
2019-04-11T13:38:46.619Z,11.80
2019-04-11T13:40:55.408Z,11.80
2019-04-11T13:43:18.992Z,11.90
2019-04-11T13:45:22.447Z,11.90
2019-04-11T13:48:29.988Z,11.90
2019-04-11T13:50:34.567Z,11.90
2019-04-11T13:53:17.304Z,12.00
2019-04-11T13:55:24.393Z,12.00
2019-04-11T13:57:33.184Z,12.10
2019-04-11T13:59:42.001Z,12.10
2019-04-11T14:01:45.788Z,12.20
2019-04-11T14:03:58.296Z,12.20
2019-04-11T14:06:05.681Z,12.20
2019-04-11T14:08:10.177Z,12.10
2019-04-11T14:10:13.792Z,12.30
2019-04-11T14:12:17.240Z,12.40
2019-04-11T14:14:32.997Z,12.40
2019-04-11T14:16:35.384Z,12.40
2019-04-11T14:18:45.058Z,12.50
2019-04-11T14:20:52.761Z,12.60
2019-04-11T14:23:04.308Z,12.70
2019-04-11T14:25:14.945Z,12.70
2019-04-11T14:27:19.760Z,12.60
2019-04-11T14:29:29.309Z,12.60
2019-04-11T14:31:38.832Z,12.70
2019-04-11T14:33:44.748Z,12.70
2019-04-11T14:35:53.233Z,12.50
2019-04-11T14:38:02.908Z,12.30
2019-04-11T14:40:12.045Z,12.20
2019-04-11T14:42:21.619Z,12.10
2019-04-11T14:44:25.530Z,12.10
2019-04-11T14:46:36.527Z,12.10
2019-04-11T14:48:42.225Z,12.30
2019-04-11T14:51:07.797Z,12.50
2019-04-11T14:53:27.934Z,12.90
2019-04-11T14:55:32.163Z,13.30
2019-04-11T14:57:39.877Z,13.50
2019-04-11T14:59:45.881Z,13.80
2019-04-11T15:01:51.077Z,14.30
2019-04-11T15:03:58.774Z,14.50
2019-04-11T15:06:16.545Z,14.30
2019-04-11T15:08:24.251Z,14.50
2019-04-11T15:10:48.850Z,14.60
2019-04-11T15:12:52.504Z,14.70
2019-04-11T15:17:06.187Z,14.70
2019-04-11T15:19:09.628Z,14.50
2019-04-11T15:21:17.302Z,14.20
2019-04-11T15:23:26.074Z,13.80
2019-04-11T15:27:39.031Z,13.50
2019-04-11T15:29:45.495Z,13.60
2019-04-11T15:33:53.215Z,13.40
2019-04-11T15:35:58.016Z,13.70
2019-04-11T15:38:05.444Z,14.10
2019-04-11T15:40:11.844Z,14.30
2019-04-11T15:42:19.574Z,14.60
2019-04-11T15:44:37.322Z,15.30
2019-04-11T15:46:43.123Z,15.80
2019-04-11T15:49:20.931Z,16.30
2019-04-11T15:51:22.242Z,16.20
2019-04-11T15:53:29.889Z,16.30
2019-04-11T15:55:50.292Z,16.10
2019-04-11T15:58:00.177Z,16.10
2019-04-11T16:00:26.487Z,16.10
2019-04-11T16:03:36.066Z,16.10
2019-04-11T16:05:51.566Z,16.00
2019-04-11T16:08:08.749Z,15.90
2019-04-11T16:10:11.985Z,15.70
2019-04-11T16:12:18.370Z,15.50
2019-04-11T16:14:25.287Z,15.10
2019-04-11T16:16:53.996Z,14.60
2019-04-11T16:19:04.495Z,14.50
2019-04-11T16:21:18.416Z,14.20
2019-04-11T16:23:19.417Z,13.80
2019-04-11T16:25:23.786Z,13.60
2019-04-11T16:27:34.289Z,13.10
2019-04-11T16:29:40.506Z,12.90
2019-04-11T16:31:43.995Z,12.90
2019-04-11T16:33:52.618Z,13.00
2019-04-11T16:36:00.985Z,13.00
2019-04-11T16:38:05.379Z,13.30
2019-04-11T16:40:14.240Z,13.50
2019-04-11T16:42:37.893Z,13.70
2019-04-11T16:44:46.569Z,14.20
2019-04-11T16:46:55.720Z,15.10
2019-04-11T16:48:58.749Z,15.50
2019-04-11T16:51:02.173Z,15.70
2019-04-11T16:53:05.613Z,15.80
2019-04-11T16:55:10.088Z,15.80
2019-04-11T16:57:13.727Z,15.90
2019-04-11T16:59:17.782Z,16.00
2019-04-11T17:01:20.758Z,16.20
2019-04-11T17:03:25.149Z,16.30
2019-04-11T17:05:27.005Z,16.40
2019-04-11T17:07:44.993Z,16.40
2019-04-11T17:09:48.519Z,16.30
2019-04-11T17:11:51.995Z,16.00
2019-04-11T17:13:57.371Z,15.80
2019-04-11T17:16:00.022Z,15.70
2019-04-11T17:18:03.146Z,15.50
2019-04-11T17:20:06.656Z,15.60
2019-04-11T17:22:09.480Z,15.60
2019-04-11T17:24:16.779Z,15.70
2019-04-11T17:26:16.375Z,15.40
2019-04-11T17:28:22.646Z,15.00
2019-04-11T17:30:24.743Z,15.10
2019-04-11T17:32:27.260Z,14.80
2019-04-11T17:34:32.377Z,14.60
2019-04-11T17:36:34.183Z,14.30
2019-04-11T17:38:37.805Z,14.00
2019-04-11T17:40:41.196Z,13.80
2019-04-11T17:42:44.656Z,13.40
2019-04-11T17:44:48.129Z,13.40
2019-04-11T17:46:51.653Z,13.10
2019-04-11T17:48:55.238Z,12.90
2019-04-11T17:50:58.664Z,12.50
2019-04-11T17:53:02.112Z,12.20
2019-04-11T17:55:05.781Z,12.00
2019-04-11T17:57:09.201Z,11.70
2019-04-11T17:59:12.657Z,11.60
2019-04-11T18:01:16.176Z,11.50
2019-04-11T18:03:19.611Z,11.30
2019-04-11T18:05:23.097Z,11.10
2019-04-11T18:07:26.544Z,10.90
2019-04-11T18:09:30.076Z,10.60
2019-04-11T18:11:33.681Z,10.60
2019-04-11T18:13:37.162Z,10.50
2019-04-11T18:15:40.583Z,10.50
2019-04-11T18:17:44.028Z,10.30
2019-04-11T18:19:47.448Z,10.20
2019-04-11T18:21:51.043Z,10.00
2019-04-11T18:23:54.468Z,10.00
2019-04-11T18:25:58.468Z,9.90
2019-04-11T18:28:01.868Z,9.90
2019-04-11T18:30:08.787Z,9.80
2019-04-11T18:32:12.282Z,9.70
2019-04-11T18:34:15.838Z,9.60
2019-04-11T18:36:19.323Z,9.50
2019-04-11T18:38:22.728Z,9.30
2019-04-11T18:40:26.419Z,9.30
2019-04-11T18:42:29.846Z,9.30
2019-04-11T18:44:33.302Z,9.20
2019-04-11T18:46:36.716Z,9.20
2019-04-11T18:48:40.145Z,9.10
2019-04-11T18:50:43.608Z,9.10
2019-04-11T18:52:47.046Z,9.10
2019-04-11T18:54:50.488Z,9.00
2019-04-11T18:56:53.943Z,8.90
2019-04-11T18:58:57.364Z,8.90
2019-04-11T19:01:00.858Z,8.80
2019-04-11T19:03:04.376Z,8.80
2019-04-11T19:05:07.973Z,8.80
2019-04-11T19:07:13.268Z,8.70
2019-04-11T19:09:14.956Z,8.60
2019-04-11T19:11:18.488Z,8.60
2019-04-11T19:13:22.027Z,8.60
2019-04-11T19:15:25.484Z,8.60
2019-04-11T19:17:30.342Z,8.50
2019-04-11T19:19:32.396Z,8.60
2019-04-11T19:21:35.817Z,8.50
2019-04-11T19:23:39.758Z,8.50
2019-04-11T19:25:45.112Z,8.40
2019-04-11T19:27:50.442Z,8.50
2019-04-11T19:29:49.759Z,8.50
2019-04-11T19:31:53.172Z,8.40
2019-04-11T19:33:56.667Z,8.50
2019-04-11T19:36:00.136Z,8.50
2019-04-11T19:38:03.656Z,8.30
2019-04-11T19:40:09.812Z,8.30
2019-04-11T19:42:10.620Z,8.30
2019-04-11T19:44:14.089Z,8.20
2019-04-11T19:46:19.903Z,8.10
2019-04-11T19:48:22.651Z,8.10
2019-04-11T19:50:26.727Z,8.00
2019-04-11T19:52:29.851Z,8.10
2019-04-11T19:54:32.975Z,8.00
2019-04-11T19:56:43.283Z,8.00
2019-04-11T19:58:46.714Z,7.90
2019-04-11T20:00:53.263Z,7.90
2019-04-11T20:02:54.120Z,8.00
2019-04-11T20:04:57.921Z,8.00
2019-04-11T20:07:00.647Z,8.00
2019-04-11T20:09:05.399Z,7.90
2019-04-11T20:11:08.812Z,8.00
2019-04-11T20:13:12.303Z,7.90
2019-04-11T20:15:15.712Z,7.80
2019-04-11T20:17:19.861Z,7.70
2019-04-11T20:19:27.045Z,7.80
2019-04-11T20:21:26.191Z,7.70
2019-04-11T20:23:29.544Z,7.70
2019-04-11T20:25:32.993Z,7.50
2019-04-11T20:27:36.403Z,7.50
2019-04-11T20:29:39.836Z,7.60
2019-04-11T20:31:43.237Z,7.50
2019-04-11T20:33:46.733Z,7.50
2019-04-11T20:35:50.177Z,7.40
2019-04-11T20:37:54.305Z,7.40
2019-04-11T20:39:57.080Z,7.30
2019-04-11T20:42:00.535Z,7.30
2019-04-11T20:44:04.149Z,7.30
2019-04-11T20:46:07.644Z,7.30
2019-04-11T20:48:11.093Z,7.40
2019-04-11T20:50:14.566Z,7.30
2019-04-11T20:52:18.039Z,7.30
2019-04-11T20:54:21.439Z,7.30
2019-04-11T20:56:24.953Z,7.30
2019-04-11T20:58:28.475Z,7.20
2019-04-11T21:00:32.002Z,7.20
2019-04-11T21:02:35.444Z,7.20
2019-04-11T21:04:38.875Z,7.20
2019-04-11T21:06:42.296Z,7.10
2019-04-11T21:08:45.735Z,7.10
2019-04-11T21:10:49.140Z,7.10
2019-04-11T21:12:52.549Z,7.00
2019-04-11T21:14:56.025Z,6.90
2019-04-11T21:16:59.619Z,6.90
2019-04-11T21:19:03.032Z,6.90
2019-04-11T21:21:06.471Z,6.90
2019-04-11T21:23:09.967Z,6.90
2019-04-11T21:25:13.412Z,7.00
2019-04-11T21:27:16.816Z,6.90
2019-04-11T21:29:20.230Z,6.90
2019-04-11T21:31:23.690Z,6.80
2019-04-11T21:33:27.187Z,6.80
2019-04-11T21:35:31.039Z,6.70
2019-04-11T21:37:36.562Z,6.70
2019-04-11T21:39:38.735Z,6.70
2019-04-11T21:41:42.269Z,6.70
2019-04-11T21:43:45.740Z,6.60
2019-04-11T21:45:49.268Z,6.50
2019-04-11T21:47:52.670Z,6.50
2019-04-11T21:49:56.116Z,6.50
2019-04-11T21:51:59.518Z,6.50
2019-04-11T21:54:02.916Z,6.50
2019-04-11T21:56:06.372Z,6.50
2019-04-11T21:58:09.794Z,6.40
2019-04-11T22:00:14.789Z,6.40
2019-04-11T22:02:23.888Z,6.30
2019-04-11T22:04:31.127Z,6.40
2019-04-11T22:06:33.247Z,6.20
2019-04-11T22:08:36.871Z,6.20
2019-04-11T22:10:41.003Z,6.30
2019-04-11T22:12:44.213Z,6.30
2019-04-11T22:14:47.649Z,6.30
2019-04-11T22:16:51.100Z,6.30
2019-04-11T22:18:54.997Z,6.30
2019-04-11T22:20:58.436Z,6.30
2019-04-11T22:23:01.869Z,6.30
2019-04-11T22:25:05.452Z,6.40
2019-04-11T22:27:08.902Z,6.40
2019-04-11T22:29:12.315Z,6.40
2019-04-11T22:31:15.792Z,6.50
2019-04-11T22:33:30.350Z,6.50
2019-04-11T22:35:33.841Z,6.60
2019-04-11T22:37:37.296Z,6.50
2019-04-11T22:39:40.708Z,6.60
2019-04-11T22:41:44.144Z,6.60
2019-04-11T22:43:47.589Z,6.60
2019-04-11T22:45:50.996Z,6.60
2019-04-11T22:47:54.453Z,6.60
2019-04-11T22:49:57.877Z,6.60
2019-04-11T22:52:01.291Z,6.70
2019-04-11T22:54:04.788Z,6.70
2019-04-11T22:56:08.963Z,6.70
2019-04-11T22:58:13.945Z,6.70
2019-04-11T23:00:15.828Z,6.80
2019-04-11T23:02:26.143Z,6.80
2019-04-11T23:04:29.670Z,6.80
2019-04-11T23:06:33.199Z,6.90
2019-04-11T23:08:36.860Z,6.90
2019-04-11T23:10:40.407Z,6.90
2019-04-11T23:12:45.732Z,6.90
2019-04-11T23:14:47.384Z,7.00
2019-04-11T23:16:50.993Z,7.00
2019-04-11T23:18:54.436Z,7.00
2019-04-11T23:20:57.864Z,7.00
2019-04-11T23:23:01.311Z,7.00
2019-04-11T23:25:04.755Z,7.00
2019-04-11T23:27:08.352Z,7.00
2019-04-11T23:29:15.683Z,7.00
2019-04-11T23:31:17.775Z,7.00
2019-04-11T23:33:21.279Z,7.10
2019-04-11T23:35:22.483Z,7.10
2019-04-11T23:37:26.032Z,7.10
2019-04-11T23:39:29.424Z,7.00
2019-04-11T23:41:32.901Z,7.00
2019-04-11T23:43:36.316Z,7.00
2019-04-11T23:45:39.736Z,6.90
2019-04-11T23:47:43.172Z,6.90
2019-04-11T23:49:46.608Z,6.90
2019-04-11T23:51:50.069Z,6.90
2019-04-11T23:53:53.488Z,6.80
2019-04-11T23:55:59.969Z,6.80
2019-04-11T23:58:01.586Z,6.80
